sensor_id;sensor_type;location;lat;lon;timestamp;pressure;altitude;pressure_sealevel;temperature;humidity
6514;BME280;3290;47.716;9.070;2023-05-19T00:00:42;97221.41;;;14.38;71.54
6514;BME280;3290;47.716;9.070;2023-05-19T00:03:09;97226.00;;;14.20;72.69
6514;BME280;3290;47.716;9.070;2023-05-19T00:05:36;97225.91;;;14.26;72.15
6514;BME280;3290;47.716;9.070;2023-05-19T00:08:06;97217.84;;;14.33;72.31
6514;BME280;3290;47.716;9.070;2023-05-19T00:10:33;97218.19;;;14.36;71.94
6514;BME280;3290;47.716;9.070;2023-05-19T00:12:59;97220.38;;;14.05;73.10
6514;BME280;3290;47.716;9.070;2023-05-19T00:15:25;97219.47;;;14.34;71.95
6514;BME280;3290;47.716;9.070;2023-05-19T00:17:50;97207.69;;;14.25;72.69
6514;BME280;3290;47.716;9.070;2023-05-19T00:20:16;97209.28;;;14.14;73.20
6514;BME280;3290;47.716;9.070;2023-05-19T00:22:42;97217.31;;;14.19;72.98
6514;BME280;3290;47.716;9.070;2023-05-19T00:25:09;97212.94;;;14.13;73.93
6514;BME280;3290;47.716;9.070;2023-05-19T00:27:34;97217.50;;;14.06;73.45
6514;BME280;3290;47.716;9.070;2023-05-19T00:30:00;97216.38;;;14.02;73.84
6514;BME280;3290;47.716;9.070;2023-05-19T00:32:25;97218.78;;;14.04;74.44
6514;BME280;3290;47.716;9.070;2023-05-19T00:34:50;97216.53;;;13.78;75.55
6514;BME280;3290;47.716;9.070;2023-05-19T00:37:16;97214.91;;;13.66;76.13
6514;BME280;3290;47.716;9.070;2023-05-19T00:39:41;97207.66;;;13.50;76.89
6514;BME280;3290;47.716;9.070;2023-05-19T00:42:07;97207.56;;;13.68;75.89
6514;BME280;3290;47.716;9.070;2023-05-19T00:44:36;97199.09;;;13.66;76.01
6514;BME280;3290;47.716;9.070;2023-05-19T00:47:04;97204.47;;;13.59;76.55
6514;BME280;3290;47.716;9.070;2023-05-19T00:49:29;97203.78;;;13.53;77.05
6514;BME280;3290;47.716;9.070;2023-05-19T00:51:55;97207.56;;;13.68;76.18
6514;BME280;3290;47.716;9.070;2023-05-19T00:54:21;97203.50;;;13.72;76.63
6514;BME280;3290;47.716;9.070;2023-05-19T00:56:46;97193.63;;;13.79;76.14
6514;BME280;3290;47.716;9.070;2023-05-19T00:59:14;97197.25;;;13.55;76.72
6514;BME280;3290;47.716;9.070;2023-05-19T01:01:39;97190.63;;;13.64;76.85
6514;BME280;3290;47.716;9.070;2023-05-19T01:04:05;97188.31;;;13.56;77.10
6514;BME280;3290;47.716;9.070;2023-05-19T01:06:34;97188.78;;;13.53;77.36
6514;BME280;3290;47.716;9.070;2023-05-19T01:09:02;97186.47;;;13.45;77.67
6514;BME280;3290;47.716;9.070;2023-05-19T01:11:27;97188.53;;;13.43;77.40
6514;BME280;3290;47.716;9.070;2023-05-19T01:13:53;97193.72;;;13.61;77.20
6514;BME280;3290;47.716;9.070;2023-05-19T01:19:28;97189.50;;;13.60;76.89
6514;BME280;3290;47.716;9.070;2023-05-19T01:24:59;97195.06;;;13.41;78.33
6514;BME280;3290;47.716;9.070;2023-05-19T01:30:43;97193.13;;;13.59;77.81
6514;BME280;3290;47.716;9.070;2023-05-19T01:33:12;97192.47;;;13.63;77.63
6514;BME280;3290;47.716;9.070;2023-05-19T01:35:42;97192.97;;;13.72;77.46
6514;BME280;3290;47.716;9.070;2023-05-19T01:38:09;97192.25;;;13.65;77.62
6514;BME280;3290;47.716;9.070;2023-05-19T01:40:37;97194.19;;;13.58;78.05
6514;BME280;3290;47.716;9.070;2023-05-19T01:43:03;97194.53;;;13.73;77.72
6514;BME280;3290;47.716;9.070;2023-05-19T01:45:30;97190.88;;;13.74;77.80
6514;BME280;3290;47.716;9.070;2023-05-19T01:47:57;97189.03;;;13.86;77.08
6514;BME280;3290;47.716;9.070;2023-05-19T01:50:24;97191.28;;;13.48;78.20
6514;BME280;3290;47.716;9.070;2023-05-19T01:52:50;97189.22;;;13.50;78.57
6514;BME280;3290;47.716;9.070;2023-05-19T01:55:16;97191.38;;;13.42;78.98
6514;BME280;3290;47.716;9.070;2023-05-19T01:57:59;97189.22;;;13.39;79.07
6514;BME280;3290;47.716;9.070;2023-05-19T02:03:47;97197.34;;;13.49;79.44
6514;BME280;3290;47.716;9.070;2023-05-19T02:09:14;97197.25;;;13.55;79.21
6514;BME280;3290;47.716;9.070;2023-05-19T02:14:29;97198.53;;;13.23;80.66
6514;BME280;3290;47.716;9.070;2023-05-19T02:16:57;97203.59;;;13.36;80.35
6514;BME280;3290;47.716;9.070;2023-05-19T02:19:28;97205.41;;;13.24;80.80
6514;BME280;3290;47.716;9.070;2023-05-19T02:21:53;97192.50;;;13.34;80.54
6514;BME280;3290;47.716;9.070;2023-05-19T02:24:19;97188.59;;;13.25;81.00
6514;BME280;3290;47.716;9.070;2023-05-19T02:26:47;97188.91;;;13.18;81.27
6514;BME280;3290;47.716;9.070;2023-05-19T02:29:12;97184.31;;;13.13;81.71
6514;BME280;3290;47.716;9.070;2023-05-19T02:31:38;97189.78;;;13.41;80.60
6514;BME280;3290;47.716;9.070;2023-05-19T02:34:03;97191.72;;;13.05;82.25
6514;BME280;3290;47.716;9.070;2023-05-19T02:36:32;97194.50;;;13.10;82.67
6514;BME280;3290;47.716;9.070;2023-05-19T02:38:59;97203.00;;;12.94;83.35
6514;BME280;3290;47.716;9.070;2023-05-19T02:41:26;97190.25;;;13.09;81.96
6514;BME280;3290;47.716;9.070;2023-05-19T02:43:51;97193.00;;;12.84;83.27
6514;BME280;3290;47.716;9.070;2023-05-19T02:46:17;97190.59;;;12.83;83.96
6514;BME280;3290;47.716;9.070;2023-05-19T02:48:42;97190.59;;;12.83;84.06
6514;BME280;3290;47.716;9.070;2023-05-19T02:51:07;97186.34;;;12.64;84.13
6514;BME280;3290;47.716;9.070;2023-05-19T02:53:33;97183.28;;;12.85;83.21
6514;BME280;3290;47.716;9.070;2023-05-19T02:55:58;97172.78;;;13.14;82.10
6514;BME280;3290;47.716;9.070;2023-05-19T02:58:23;97171.72;;;12.86;83.00
6514;BME280;3290;47.716;9.070;2023-05-19T03:00:49;97171.38;;;13.12;81.97
6514;BME280;3290;47.716;9.070;2023-05-19T03:03:15;97179.97;;;12.89;82.83
6514;BME280;3290;47.716;9.070;2023-05-19T03:05:41;97170.97;;;12.79;83.13
6514;BME280;3290;47.716;9.070;2023-05-19T03:08:07;97172.44;;;12.75;84.18
6514;BME280;3290;47.716;9.070;2023-05-19T03:10:33;97172.03;;;12.78;83.65
6514;BME280;3290;47.716;9.070;2023-05-19T03:12:58;97180.06;;;12.65;84.59
6514;BME280;3290;47.716;9.070;2023-05-19T03:15:24;97183.94;;;12.80;83.76
6514;BME280;3290;47.716;9.070;2023-05-19T03:17:49;97177.97;;;12.91;83.60
6514;BME280;3290;47.716;9.070;2023-05-19T03:20:16;97185.69;;;12.86;83.57
6514;BME280;3290;47.716;9.070;2023-05-19T03:22:41;97182.72;;;12.65;83.68
6514;BME280;3290;47.716;9.070;2023-05-19T03:25:07;97180.66;;;12.85;83.45
6514;BME280;3290;47.716;9.070;2023-05-19T03:27:32;97177.72;;;12.75;83.63
6514;BME280;3290;47.716;9.070;2023-05-19T03:29:58;97187.66;;;12.91;82.81
6514;BME280;3290;47.716;9.070;2023-05-19T03:32:23;97188.91;;;12.71;83.55
6514;BME280;3290;47.716;9.070;2023-05-19T03:34:48;97191.03;;;12.80;84.11
6514;BME280;3290;47.716;9.070;2023-05-19T03:37:14;97189.97;;;12.63;83.47
6514;BME280;3290;47.716;9.070;2023-05-19T03:39:39;97192.97;;;12.67;84.15
6514;BME280;3290;47.716;9.070;2023-05-19T03:42:05;97192.56;;;12.52;84.87
6514;BME280;3290;47.716;9.070;2023-05-19T03:44:30;97190.56;;;12.47;84.84
6514;BME280;3290;47.716;9.070;2023-05-19T03:46:55;97187.09;;;12.36;84.79
6514;BME280;3290;47.716;9.070;2023-05-19T03:49:21;97185.25;;;12.36;85.15
6514;BME280;3290;47.716;9.070;2023-05-19T03:51:46;97184.31;;;12.48;84.49
6514;BME280;3290;47.716;9.070;2023-05-19T03:54:12;97186.13;;;12.66;83.95
6514;BME280;3290;47.716;9.070;2023-05-19T03:56:38;97191.09;;;12.38;85.31
6514;BME280;3290;47.716;9.070;2023-05-19T03:59:04;97184.38;;;12.60;84.06
6514;BME280;3290;47.716;9.070;2023-05-19T04:01:31;97186.72;;;12.32;85.21
6514;BME280;3290;47.716;9.070;2023-05-19T04:03:57;97186.94;;;12.48;84.33
6514;BME280;3290;47.716;9.070;2023-05-19T04:06:22;97182.84;;;12.52;84.61
6514;BME280;3290;47.716;9.070;2023-05-19T04:08:48;97185.47;;;12.52;83.98
6514;BME280;3290;47.716;9.070;2023-05-19T04:11:13;97186.78;;;12.43;84.74
6514;BME280;3290;47.716;9.070;2023-05-19T04:13:39;97182.81;;;12.70;84.20
6514;BME280;3290;47.716;9.070;2023-05-19T04:16:05;97183.00;;;12.22;86.42
6514;BME280;3290;47.716;9.070;2023-05-19T04:18:31;97185.34;;;12.65;84.23
6514;BME280;3290;47.716;9.070;2023-05-19T04:20:56;97187.66;;;12.38;85.01
6514;BME280;3290;47.716;9.070;2023-05-19T04:23:21;97189.63;;;12.42;85.48
6514;BME280;3290;47.716;9.070;2023-05-19T04:25:47;97189.25;;;12.21;85.79
6514;BME280;3290;47.716;9.070;2023-05-19T04:28:13;97186.72;;;12.68;84.62
6514;BME280;3290;47.716;9.070;2023-05-19T04:30:39;97191.56;;;12.53;84.63
6514;BME280;3290;47.716;9.070;2023-05-19T04:33:06;97194.41;;;12.34;85.21
6514;BME280;3290;47.716;9.070;2023-05-19T04:35:33;97189.63;;;12.42;85.81
6514;BME280;3290;47.716;9.070;2023-05-19T04:37:59;97191.47;;;12.41;85.58
6514;BME280;3290;47.716;9.070;2023-05-19T04:40:26;97193.00;;;12.49;85.43
6514;BME280;3290;47.716;9.070;2023-05-19T04:42:51;97194.25;;;12.46;85.71
6514;BME280;3290;47.716;9.070;2023-05-19T04:45:17;97193.94;;;12.54;85.37
6514;BME280;3290;47.716;9.070;2023-05-19T04:47:42;97200.97;;;12.60;85.00
6514;BME280;3290;47.716;9.070;2023-05-19T04:50:08;97200.34;;;12.40;86.45
6514;BME280;3290;47.716;9.070;2023-05-19T04:52:35;97200.22;;;12.53;85.28
6514;BME280;3290;47.716;9.070;2023-05-19T04:55:00;97200.94;;;12.25;85.92
6514;BME280;3290;47.716;9.070;2023-05-19T04:57:25;97208.09;;;12.71;84.46
6514;BME280;3290;47.716;9.070;2023-05-19T04:59:51;97202.34;;;12.45;86.04
6514;BME280;3290;47.716;9.070;2023-05-19T05:02:17;97198.19;;;12.55;86.15
6514;BME280;3290;47.716;9.070;2023-05-19T05:04:42;97209.56;;;12.67;85.75
6514;BME280;3290;47.716;9.070;2023-05-19T05:07:08;97201.94;;;12.77;84.84
6514;BME280;3290;47.716;9.070;2023-05-19T05:09:34;97202.66;;;12.55;86.03
6514;BME280;3290;47.716;9.070;2023-05-19T05:12:01;97200.44;;;12.70;85.46
6514;BME280;3290;47.716;9.070;2023-05-19T05:14:26;97202.56;;;12.97;84.36
6514;BME280;3290;47.716;9.070;2023-05-19T05:16:52;97201.84;;;12.90;84.38
6514;BME280;3290;47.716;9.070;2023-05-19T05:19:18;97202.19;;;12.93;83.81
6514;BME280;3290;47.716;9.070;2023-05-19T05:21:44;97207.72;;;13.03;83.28
6514;BME280;3290;47.716;9.070;2023-05-19T05:24:10;97205.91;;;12.86;84.16
6514;BME280;3290;47.716;9.070;2023-05-19T05:26:36;97201.00;;;12.89;84.29
6514;BME280;3290;47.716;9.070;2023-05-19T05:29:02;97202.19;;;13.22;82.96
6514;BME280;3290;47.716;9.070;2023-05-19T05:31:27;97200.38;;;12.76;84.30
6514;BME280;3290;47.716;9.070;2023-05-19T05:33:53;97208.09;;;12.71;85.82
6514;BME280;3290;47.716;9.070;2023-05-19T05:36:18;97211.69;;;12.77;86.67
6514;BME280;3290;47.716;9.070;2023-05-19T05:38:44;97205.31;;;13.31;83.31
6514;BME280;3290;47.716;9.070;2023-05-19T05:41:09;97204.53;;;12.48;86.40
6514;BME280;3290;47.716;9.070;2023-05-19T05:43:34;97204.31;;;12.85;85.11
6514;BME280;3290;47.716;9.070;2023-05-19T05:46:00;97206.56;;;12.99;84.73
6514;BME280;3290;47.716;9.070;2023-05-19T05:48:26;97202.41;;;12.92;84.95
6514;BME280;3290;47.716;9.070;2023-05-19T05:50:51;97208.25;;;12.94;85.50
6514;BME280;3290;47.716;9.070;2023-05-19T05:53:19;97208.69;;;12.91;85.25
6514;BME280;3290;47.716;9.070;2023-05-19T05:55:46;97216.38;;;12.92;84.44
6514;BME280;3290;47.716;9.070;2023-05-19T05:58:12;97210.19;;;12.98;84.41
6514;BME280;3290;47.716;9.070;2023-05-19T06:00:39;97219.41;;;13.07;84.20
6514;BME280;3290;47.716;9.070;2023-05-19T06:03:07;97212.34;;;13.48;83.22
6514;BME280;3290;47.716;9.070;2023-05-19T06:05:34;97216.34;;;13.39;83.05
6514;BME280;3290;47.716;9.070;2023-05-19T06:07:59;97214.97;;;13.48;82.98
6514;BME280;3290;47.716;9.070;2023-05-19T06:10:26;97218.25;;;13.32;83.56
6514;BME280;3290;47.716;9.070;2023-05-19T06:12:52;97221.63;;;13.51;82.90
6514;BME280;3290;47.716;9.070;2023-05-19T06:15:17;97211.00;;;13.57;82.96
6514;BME280;3290;47.716;9.070;2023-05-19T06:17:42;97210.19;;;13.57;82.03
6514;BME280;3290;47.716;9.070;2023-05-19T06:20:08;97207.81;;;13.26;83.42
6514;BME280;3290;47.716;9.070;2023-05-19T06:22:34;97214.91;;;13.66;82.93
6514;BME280;3290;47.716;9.070;2023-05-19T06:25:00;97212.63;;;13.58;82.72
6514;BME280;3290;47.716;9.070;2023-05-19T06:27:25;97214.06;;;13.54;82.56
6514;BME280;3290;47.716;9.070;2023-05-19T06:29:51;97215.38;;;13.74;81.75
6514;BME280;3290;47.716;9.070;2023-05-19T06:32:16;97216.22;;;13.86;82.57
6514;BME280;3290;47.716;9.070;2023-05-19T06:34:42;97214.56;;;13.62;81.70
6514;BME280;3290;47.716;9.070;2023-05-19T06:37:07;97213.88;;;13.67;82.04
6514;BME280;3290;47.716;9.070;2023-05-19T06:39:33;97207.72;;;13.32;82.24
6514;BME280;3290;47.716;9.070;2023-05-19T06:41:58;97204.59;;;13.53;82.08
6514;BME280;3290;47.716;9.070;2023-05-19T06:44:25;97221.53;;;13.57;82.36
6514;BME280;3290;47.716;9.070;2023-05-19T06:46:50;97209.69;;;14.00;81.12
6514;BME280;3290;47.716;9.070;2023-05-19T06:49:16;97219.28;;;13.72;81.17
6514;BME280;3290;47.716;9.070;2023-05-19T06:51:41;97213.72;;;14.02;80.60
6514;BME280;3290;47.716;9.070;2023-05-19T06:54:06;97218.25;;;13.73;81.05
6514;BME280;3290;47.716;9.070;2023-05-19T06:56:35;97222.28;;;13.87;81.04
6514;BME280;3290;47.716;9.070;2023-05-19T06:59:00;97220.63;;;13.63;82.05
6514;BME280;3290;47.716;9.070;2023-05-19T07:01:25;97212.09;;;14.01;80.03
6514;BME280;3290;47.716;9.070;2023-05-19T07:03:51;97225.44;;;13.66;80.63
6514;BME280;3290;47.716;9.070;2023-05-19T07:06:17;97221.25;;;13.99;81.13
6514;BME280;3290;47.716;9.070;2023-05-19T07:08:42;97219.03;;;14.14;80.19
6514;BME280;3290;47.716;9.070;2023-05-19T07:11:08;97218.31;;;14.18;80.27
6514;BME280;3290;47.716;9.070;2023-05-19T07:13:33;97211.31;;;14.46;78.94
6514;BME280;3290;47.716;9.070;2023-05-19T07:15:58;97215.00;;;14.45;78.42
6514;BME280;3290;47.716;9.070;2023-05-19T07:18:24;97217.63;;;14.34;78.79
6514;BME280;3290;47.716;9.070;2023-05-19T07:20:51;97216.94;;;14.27;78.71
6514;BME280;3290;47.716;9.070;2023-05-19T07:23:16;97212.34;;;14.34;78.28
6514;BME280;3290;47.716;9.070;2023-05-19T07:25:42;97215.56;;;14.36;78.94
6514;BME280;3290;47.716;9.070;2023-05-19T07:28:07;97210.63;;;14.51;78.35
6514;BME280;3290;47.716;9.070;2023-05-19T07:30:32;97207.44;;;14.49;77.49
6514;BME280;3290;47.716;9.070;2023-05-19T07:32:58;97217.97;;;14.49;76.95
6514;BME280;3290;47.716;9.070;2023-05-19T07:35:25;97216.22;;;14.66;77.48
6514;BME280;3290;47.716;9.070;2023-05-19T07:37:51;97213.97;;;14.85;77.13
6514;BME280;3290;47.716;9.070;2023-05-19T07:40:16;97207.84;;;15.08;77.31
6514;BME280;3290;47.716;9.070;2023-05-19T07:42:42;97206.38;;;15.00;76.28
6514;BME280;3290;47.716;9.070;2023-05-19T07:45:09;97207.75;;;15.14;75.69
6514;BME280;3290;47.716;9.070;2023-05-19T07:47:35;97209.50;;;15.36;75.18
6514;BME280;3290;47.716;9.070;2023-05-19T07:50:00;97200.53;;;15.37;75.94
6514;BME280;3290;47.716;9.070;2023-05-19T07:52:25;97201.50;;;15.48;74.21
6514;BME280;3290;47.716;9.070;2023-05-19T07:54:51;97200.66;;;15.91;73.48
6514;BME280;3290;47.716;9.070;2023-05-19T07:57:17;97203.13;;;15.81;72.17
6514;BME280;3290;47.716;9.070;2023-05-19T07:59:43;97213.75;;;15.54;74.07
6514;BME280;3290;47.716;9.070;2023-05-19T08:02:08;97202.91;;;15.83;71.96
6514;BME280;3290;47.716;9.070;2023-05-19T08:04:33;97203.69;;;15.67;71.12
6514;BME280;3290;47.716;9.070;2023-05-19T08:06:59;97205.91;;;15.59;72.56
6514;BME280;3290;47.716;9.070;2023-05-19T08:09:24;97198.72;;;15.54;73.45
6514;BME280;3290;47.716;9.070;2023-05-19T08:11:50;97194.41;;;15.64;72.82
6514;BME280;3290;47.716;9.070;2023-05-19T08:14:22;97201.03;;;15.67;73.80
6514;BME280;3290;47.716;9.070;2023-05-19T08:16:51;97200.81;;;15.68;73.25
6514;BME280;3290;47.716;9.070;2023-05-19T08:19:19;97211.28;;;15.20;73.35
6514;BME280;3290;47.716;9.070;2023-05-19T08:21:44;97200.28;;;15.39;74.12
6514;BME280;3290;47.716;9.070;2023-05-19T08:24:10;97200.72;;;15.63;73.42
6514;BME280;3290;47.716;9.070;2023-05-19T08:26:35;97195.38;;;15.91;72.05
6514;BME280;3290;47.716;9.070;2023-05-19T08:29:01;97187.81;;;16.48;69.52
6514;BME280;3290;47.716;9.070;2023-05-19T08:31:26;97189.13;;;16.30;71.36
6514;BME280;3290;47.716;9.070;2023-05-19T08:33:51;97195.69;;;16.27;69.98
6514;BME280;3290;47.716;9.070;2023-05-19T08:36:17;97188.66;;;16.33;69.64
6514;BME280;3290;47.716;9.070;2023-05-19T08:38:43;97190.09;;;15.91;70.29
6514;BME280;3290;47.716;9.070;2023-05-19T08:41:08;97179.59;;;15.80;71.36
6514;BME280;3290;47.716;9.070;2023-05-19T08:43:33;97177.25;;;16.16;70.56
6514;BME280;3290;47.716;9.070;2023-05-19T08:45:59;97173.97;;;15.76;71.59
6514;BME280;3290;47.716;9.070;2023-05-19T08:48:27;97180.47;;;15.85;71.91
6514;BME280;3290;47.716;9.070;2023-05-19T08:51:11;97178.09;;;15.84;70.24
6514;BME280;3290;47.716;9.070;2023-05-19T08:53:39;97174.53;;;15.78;71.71
6514;BME280;3290;47.716;9.070;2023-05-19T08:56:16;97177.78;;;15.80;71.56
6514;BME280;3290;47.716;9.070;2023-05-19T08:58:44;97177.13;;;15.90;70.86
6514;BME280;3290;47.716;9.070;2023-05-19T09:01:12;97179.09;;;15.99;71.60
6514;BME280;3290;47.716;9.070;2023-05-19T09:03:39;97178.22;;;16.10;70.52
6514;BME280;3290;47.716;9.070;2023-05-19T09:06:05;97173.66;;;16.59;68.39
6514;BME280;3290;47.716;9.070;2023-05-19T09:08:35;97177.72;;;16.45;68.95
6514;BME280;3290;47.716;9.070;2023-05-19T09:11:01;97173.09;;;16.36;68.95
6514;BME280;3290;47.716;9.070;2023-05-19T09:13:27;97171.94;;;16.91;66.89
6514;BME280;3290;47.716;9.070;2023-05-19T09:15:52;97165.47;;;17.24;66.38
6514;BME280;3290;47.716;9.070;2023-05-19T09:18:17;97157.38;;;17.67;65.23
6514;BME280;3290;47.716;9.070;2023-05-19T09:20:45;97159.19;;;17.62;65.30
6514;BME280;3290;47.716;9.070;2023-05-19T09:23:12;97159.38;;;17.50;65.45
6514;BME280;3290;47.716;9.070;2023-05-19T09:25:51;97146.88;;;18.54;62.86
6514;BME280;3290;47.716;9.070;2023-05-19T09:28:27;97139.16;;;19.23;59.46
6514;BME280;3290;47.716;9.070;2023-05-19T09:31:07;97148.66;;;18.44;60.17
6514;BME280;3290;47.716;9.070;2023-05-19T09:33:37;97143.69;;;18.52;59.72
6514;BME280;3290;47.716;9.070;2023-05-19T09:36:03;97142.66;;;18.63;60.31
6514;BME280;3290;47.716;9.070;2023-05-19T09:38:31;97139.59;;;17.94;60.60
6514;BME280;3290;47.716;9.070;2023-05-19T09:40:57;97135.06;;;18.25;61.92
6514;BME280;3290;47.716;9.070;2023-05-19T09:43:26;97134.34;;;19.00;58.40
6514;BME280;3290;47.716;9.070;2023-05-19T09:46:07;97141.91;;;19.48;57.07
6514;BME280;3290;47.716;9.070;2023-05-19T09:48:34;97142.25;;;18.90;57.70
6514;BME280;3290;47.716;9.070;2023-05-19T09:51:01;97139.16;;;18.52;60.75
6514;BME280;3290;47.716;9.070;2023-05-19T09:53:28;97148.59;;;17.35;63.25
6514;BME280;3290;47.716;9.070;2023-05-19T09:55:55;97132.94;;;18.27;62.60
6514;BME280;3290;47.716;9.070;2023-05-19T09:58:24;97124.69;;;18.84;60.69
6514;BME280;3290;47.716;9.070;2023-05-19T10:00:50;97130.09;;;19.04;60.49
6514;BME280;3290;47.716;9.070;2023-05-19T10:03:16;97127.28;;;18.65;60.75
6514;BME280;3290;47.716;9.070;2023-05-19T10:05:44;97138.56;;;18.00;61.05
6514;BME280;3290;47.716;9.070;2023-05-19T10:08:11;97141.19;;;17.32;62.69
6514;BME280;3290;47.716;9.070;2023-05-19T10:10:36;97134.81;;;17.33;63.12
6514;BME280;3290;47.716;9.070;2023-05-19T10:13:02;97139.84;;;17.61;63.91
6514;BME280;3290;47.716;9.070;2023-05-19T10:15:28;97128.50;;;18.47;60.50
6514;BME280;3290;47.716;9.070;2023-05-19T10:17:55;97127.13;;;18.35;62.31
6514;BME280;3290;47.716;9.070;2023-05-19T10:20:21;97123.16;;;18.33;61.54
6514;BME280;3290;47.716;9.070;2023-05-19T10:22:46;97122.22;;;18.58;61.36
6514;BME280;3290;47.716;9.070;2023-05-19T10:25:14;97128.00;;;18.04;61.10
6514;BME280;3290;47.716;9.070;2023-05-19T10:27:55;97119.50;;;18.03;60.21
6514;BME280;3290;47.716;9.070;2023-05-19T10:30:33;97122.81;;;17.83;61.15
6514;BME280;3290;47.716;9.070;2023-05-19T10:33:00;97127.53;;;18.12;61.02
6514;BME280;3290;47.716;9.070;2023-05-19T10:38:32;97127.56;;;18.17;61.13
6514;BME280;3290;47.716;9.070;2023-05-19T10:46:15;97127.03;;;17.01;67.49
6514;BME280;3290;47.716;9.070;2023-05-19T10:48:43;97124.94;;;17.24;67.09
6514;BME280;3290;47.716;9.070;2023-05-19T10:51:10;97130.00;;;17.30;66.17
6514;BME280;3290;47.716;9.070;2023-05-19T10:53:39;97135.47;;;16.72;68.27
6514;BME280;3290;47.716;9.070;2023-05-19T10:56:05;97128.81;;;17.17;67.78
6514;BME280;3290;47.716;9.070;2023-05-19T11:01:17;97122.09;;;16.41;69.31
6514;BME280;3290;47.716;9.070;2023-05-19T11:03:49;97134.28;;;16.63;70.81
6514;BME280;3290;47.716;9.070;2023-05-19T11:06:32;97127.38;;;16.83;70.06
6514;BME280;3290;47.716;9.070;2023-05-19T11:09:17;97122.81;;;17.00;69.67
6514;BME280;3290;47.716;9.070;2023-05-19T11:14:10;97114.38;;;17.60;68.51
6514;BME280;3290;47.716;9.070;2023-05-19T11:16:38;97121.69;;;17.17;68.47
6514;BME280;3290;47.716;9.070;2023-05-19T11:19:06;97115.41;;;17.02;69.51
6514;BME280;3290;47.716;9.070;2023-05-19T11:24:07;97110.91;;;17.91;65.89
6514;BME280;3290;47.716;9.070;2023-05-19T11:26:40;97102.63;;;17.82;65.69
6514;BME280;3290;47.716;9.070;2023-05-19T11:29:09;97104.34;;;18.39;64.65
6514;BME280;3290;47.716;9.070;2023-05-19T11:31:36;97110.53;;;17.77;65.81
6514;BME280;3290;47.716;9.070;2023-05-19T11:34:03;97106.84;;;18.09;65.29
6514;BME280;3290;47.716;9.070;2023-05-19T11:36:32;97107.47;;;17.90;65.96
6514;BME280;3290;47.716;9.070;2023-05-19T11:38:58;97111.78;;;17.65;65.30
6514;BME280;3290;47.716;9.070;2023-05-19T11:41:25;97109.63;;;18.34;64.28
6514;BME280;3290;47.716;9.070;2023-05-19T11:43:52;97106.00;;;18.55;63.62
6514;BME280;3290;47.716;9.070;2023-05-19T11:46:17;97101.25;;;18.62;63.41
6514;BME280;3290;47.716;9.070;2023-05-19T11:48:46;97104.34;;;18.39;63.06
6514;BME280;3290;47.716;9.070;2023-05-19T11:51:11;97103.25;;;18.35;63.51
6514;BME280;3290;47.716;9.070;2023-05-19T11:53:37;97094.81;;;17.97;62.32
6514;BME280;3290;47.716;9.070;2023-05-19T11:56:03;97090.44;;;18.83;60.91
6514;BME280;3290;47.716;9.070;2023-05-19T11:58:28;97093.84;;;18.64;59.20
6514;BME280;3290;47.716;9.070;2023-05-19T12:00:54;97088.59;;;18.84;59.18
6514;BME280;3290;47.716;9.070;2023-05-19T12:03:20;97093.44;;;19.01;59.08
6514;BME280;3290;47.716;9.070;2023-05-19T12:05:47;97079.16;;;19.52;58.06
6514;BME280;3290;47.716;9.070;2023-05-19T12:08:12;97080.34;;;18.80;57.65
6514;BME280;3290;47.716;9.070;2023-05-19T12:10:39;97096.50;;;18.74;59.62
6514;BME280;3290;47.716;9.070;2023-05-19T12:13:05;97092.09;;;18.33;59.97
6514;BME280;3290;47.716;9.070;2023-05-19T12:15:33;97092.19;;;18.58;60.22
6514;BME280;3290;47.716;9.070;2023-05-19T12:18:00;97090.72;;;18.82;59.89
6514;BME280;3290;47.716;9.070;2023-05-19T12:20:28;97089.16;;;18.95;60.00
6514;BME280;3290;47.716;9.070;2023-05-19T12:22:56;97095.59;;;19.09;58.05
6514;BME280;3290;47.716;9.070;2023-05-19T12:25:22;97093.94;;;18.93;59.18
6514;BME280;3290;47.716;9.070;2023-05-19T12:27:48;97108.38;;;18.46;59.80
6514;BME280;3290;47.716;9.070;2023-05-19T12:30:15;97103.22;;;17.89;60.93
6514;BME280;3290;47.716;9.070;2023-05-19T12:32:41;97105.31;;;17.87;61.08
6514;BME280;3290;47.716;9.070;2023-05-19T12:35:07;97110.16;;;18.36;61.07
6514;BME280;3290;47.716;9.070;2023-05-19T12:37:33;97102.00;;;18.06;61.11
6514;BME280;3290;47.716;9.070;2023-05-19T12:40:02;97107.06;;;17.72;62.66
6514;BME280;3290;47.716;9.070;2023-05-19T12:42:29;97107.28;;;18.02;62.79
6514;BME280;3290;47.716;9.070;2023-05-19T12:45:01;97100.41;;;18.05;62.99
6514;BME280;3290;47.716;9.070;2023-05-19T12:47:31;97105.19;;;18.08;62.06
6514;BME280;3290;47.716;9.070;2023-05-19T12:50:05;97101.25;;;18.11;62.23
6514;BME280;3290;47.716;9.070;2023-05-19T12:52:42;97092.97;;;18.07;61.65
6514;BME280;3290;47.716;9.070;2023-05-19T12:55:08;97089.91;;;18.20;60.85
6514;BME280;3290;47.716;9.070;2023-05-19T12:57:36;97089.88;;;18.15;62.14
6514;BME280;3290;47.716;9.070;2023-05-19T13:00:15;97085.16;;;18.22;59.70
6514;BME280;3290;47.716;9.070;2023-05-19T13:03:05;97084.72;;;18.45;59.68
6514;BME280;3290;47.716;9.070;2023-05-19T13:05:40;97084.25;;;18.63;58.38
6514;BME280;3290;47.716;9.070;2023-05-19T13:08:12;97086.72;;;18.18;59.33
6514;BME280;3290;47.716;9.070;2023-05-19T13:10:39;97083.09;;;18.34;59.34
6514;BME280;3290;47.716;9.070;2023-05-19T13:13:06;97079.25;;;18.71;58.77
6514;BME280;3290;47.716;9.070;2023-05-19T13:15:33;97078.25;;;18.16;60.45
6514;BME280;3290;47.716;9.070;2023-05-19T13:18:00;97079.72;;;18.03;61.95
6514;BME280;3290;47.716;9.070;2023-05-19T13:20:26;97082.56;;;18.37;61.65
6514;BME280;3290;47.716;9.070;2023-05-19T13:22:52;97086.00;;;17.92;62.44
6514;BME280;3290;47.716;9.070;2023-05-19T13:25:18;97081.94;;;17.79;63.29
6514;BME280;3290;47.716;9.070;2023-05-19T13:27:44;97080.25;;;18.04;62.73
6514;BME280;3290;47.716;9.070;2023-05-19T13:30:10;97077.75;;;17.88;63.35
6514;BME280;3290;47.716;9.070;2023-05-19T13:32:36;97079.72;;;18.03;63.71
6514;BME280;3290;47.716;9.070;2023-05-19T13:35:02;97084.56;;;17.74;63.43
6514;BME280;3290;47.716;9.070;2023-05-19T13:37:27;97083.72;;;17.69;63.00
6514;BME280;3290;47.716;9.070;2023-05-19T13:39:53;97083.84;;;17.53;64.13
6514;BME280;3290;47.716;9.070;2023-05-19T13:42:18;97084.03;;;17.77;63.34
6514;BME280;3290;47.716;9.070;2023-05-19T13:44:44;97088.41;;;17.57;64.26
6514;BME280;3290;47.716;9.070;2023-05-19T13:47:10;97084.63;;;17.84;63.76
6514;BME280;3290;47.716;9.070;2023-05-19T13:49:36;97087.28;;;18.20;63.49
6514;BME280;3290;47.716;9.070;2023-05-19T13:52:01;97083.44;;;18.06;63.92
6514;BME280;3290;47.716;9.070;2023-05-19T13:54:27;97084.09;;;18.18;62.67